sensor_id;sensor_type;location;lat;lon;timestamp;P1;durP1;ratioP1;P2;durP2;ratioP2
313;SDS011;143;51.634;7.112;2022-09-27T00:01:59;5.40;;;1.97;;
313;SDS011;143;51.634;7.112;2022-09-27T00:04:25;8.00;;;2.10;;
313;SDS011;143;51.634;7.112;2022-09-27T00:06:51;5.20;;;2.47;;
313;SDS011;143;51.634;7.112;2022-09-27T00:09:17;5.77;;;2.07;;
313;SDS011;143;51.634;7.112;2022-09-27T00:11:43;5.40;;;1.97;;
313;SDS011;143;51.634;7.112;2022-09-27T00:14:10;2.60;;;1.43;;
313;SDS011;143;51.634;7.112;2022-09-27T00:16:38;8.50;;;1.70;;
313;SDS011;143;51.634;7.112;2022-09-27T00:19:06;2.93;;;1.53;;
313;SDS011;143;51.634;7.112;2022-09-27T00:21:35;3.20;;;1.40;;
313;SDS011;143;51.634;7.112;2022-09-27T00:24:01;9.23;;;2.53;;
313;SDS011;143;51.634;7.112;2022-09-27T00:26:27;4.90;;;1.40;;
313;SDS011;143;51.634;7.112;2022-09-27T00:28:53;6.13;;;1.63;;
313;SDS011;143;51.634;7.112;2022-09-27T00:31:20;6.33;;;2.10;;
313;SDS011;143;51.634;7.112;2022-09-27T00:33:49;8.60;;;1.87;;
313;SDS011;143;51.634;7.112;2022-09-27T00:36:16;2.80;;;1.43;;
313;SDS011;143;51.634;7.112;2022-09-27T00:38:43;5.13;;;1.63;;
313;SDS011;143;51.634;7.112;2022-09-27T00:41:13;11.40;;;2.10;;
313;SDS011;143;51.634;7.112;2022-09-27T00:46:13;9.00;;;1.60;;
313;SDS011;143;51.634;7.112;2022-09-27T00:48:44;5.37;;;1.50;;
313;SDS011;143;51.634;7.112;2022-09-27T00:51:10;8.93;;;2.03;;
313;SDS011;143;51.634;7.112;2022-09-27T00:53:38;6.90;;;2.07;;
313;SDS011;143;51.634;7.112;2022-09-27T00:56:17;6.00;;;1.30;;
313;SDS011;143;51.634;7.112;2022-09-27T00:58:49;7.40;;;2.10;;
313;SDS011;143;51.634;7.112;2022-09-27T01:01:21;12.00;;;4.50;;
313;SDS011;143;51.634;7.112;2022-09-27T01:04:00;11.80;;;2.80;;
313;SDS011;143;51.634;7.112;2022-09-27T01:06:32;16.20;;;2.97;;
313;SDS011;143;51.634;7.112;2022-09-27T01:08:58;8.53;;;2.70;;
313;SDS011;143;51.634;7.112;2022-09-27T01:19:45;6.03;;;2.90;;
313;SDS011;143;51.634;7.112;2022-09-27T01:43:58;6.93;;;3.73;;
313;SDS011;143;51.634;7.112;2022-09-27T01:49:05;10.50;;;4.10;;
313;SDS011;143;51.634;7.112;2022-09-27T01:51:53;8.07;;;4.30;;
313;SDS011;143;51.634;7.112;2022-09-27T01:54:24;11.90;;;4.70;;
313;SDS011;143;51.634;7.112;2022-09-27T01:57:12;8.43;;;4.43;;
313;SDS011;143;51.634;7.112;2022-09-27T01:59:46;10.03;;;4.97;;
313;SDS011;143;51.634;7.112;2022-09-27T02:02:15;16.73;;;4.77;;
313;SDS011;143;51.634;7.112;2022-09-27T02:04:46;13.83;;;4.70;;
313;SDS011;143;51.634;7.112;2022-09-27T02:07:17;6.80;;;4.17;;
313;SDS011;143;51.634;7.112;2022-09-27T02:09:52;9.97;;;4.10;;
313;SDS011;143;51.634;7.112;2022-09-27T02:12:19;7.50;;;3.30;;
313;SDS011;143;51.634;7.112;2022-09-27T02:14:55;19.23;;;4.70;;
313;SDS011;143;51.634;7.112;2022-09-27T02:22:34;7.50;;;3.97;;
313;SDS011;143;51.634;7.112;2022-09-27T02:25:03;6.50;;;3.00;;
313;SDS011;143;51.634;7.112;2022-09-27T02:27:55;9.70;;;3.80;;
313;SDS011;143;51.634;7.112;2022-09-27T02:30:23;8.83;;;3.67;;
313;SDS011;143;51.634;7.112;2022-09-27T02:32:49;7.33;;;3.53;;
313;SDS011;143;51.634;7.112;2022-09-27T02:35:21;7.00;;;2.83;;
313;SDS011;143;51.634;7.112;2022-09-27T02:37:53;5.33;;;2.57;;
313;SDS011;143;51.634;7.112;2022-09-27T02:40:20;6.80;;;2.80;;
313;SDS011;143;51.634;7.112;2022-09-27T02:42:46;4.03;;;2.83;;
313;SDS011;143;51.634;7.112;2022-09-27T02:45:13;4.10;;;2.93;;
313;SDS011;143;51.634;7.112;2022-09-27T02:47:48;7.63;;;2.87;;
313;SDS011;143;51.634;7.112;2022-09-27T02:56:31;6.43;;;2.20;;
313;SDS011;143;51.634;7.112;2022-09-27T02:59:25;5.77;;;2.53;;
313;SDS011;143;51.634;7.112;2022-09-27T03:05:19;6.53;;;2.27;;
313;SDS011;143;51.634;7.112;2022-09-27T03:07:50;4.97;;;2.23;;
313;SDS011;143;51.634;7.112;2022-09-27T03:10:21;2.10;;;1.70;;
313;SDS011;143;51.634;7.112;2022-09-27T03:12:51;5.00;;;2.30;;
313;SDS011;143;51.634;7.112;2022-09-27T03:15:18;6.30;;;2.20;;
313;SDS011;143;51.634;7.112;2022-09-27T03:17:45;5.30;;;2.97;;
313;SDS011;143;51.634;7.112;2022-09-27T03:20:10;4.37;;;2.37;;
313;SDS011;143;51.634;7.112;2022-09-27T03:22:36;6.30;;;2.03;;
313;SDS011;143;51.634;7.112;2022-09-27T03:25:03;5.50;;;2.53;;
313;SDS011;143;51.634;7.112;2022-09-27T03:27:30;3.97;;;2.93;;
313;SDS011;143;51.634;7.112;2022-09-27T03:29:56;7.30;;;2.60;;
313;SDS011;143;51.634;7.112;2022-09-27T03:32:23;4.60;;;2.90;;
313;SDS011;143;51.634;7.112;2022-09-27T03:34:49;8.40;;;2.63;;
313;SDS011;143;51.634;7.112;2022-09-27T03:37:15;4.87;;;2.27;;
313;SDS011;143;51.634;7.112;2022-09-27T03:39:41;2.60;;;2.43;;
313;SDS011;143;51.634;7.112;2022-09-27T03:42:07;4.70;;;2.83;;
313;SDS011;143;51.634;7.112;2022-09-27T03:44:33;12.20;;;2.43;;
313;SDS011;143;51.634;7.112;2022-09-27T03:46:58;3.03;;;2.30;;
313;SDS011;143;51.634;7.112;2022-09-27T03:49:24;6.60;;;2.10;;
313;SDS011;143;51.634;7.112;2022-09-27T03:51:50;7.23;;;2.50;;
313;SDS011;143;51.634;7.112;2022-09-27T03:54:15;14.33;;;3.10;;
313;SDS011;143;51.634;7.112;2022-09-27T03:56:41;6.20;;;2.70;;
313;SDS011;143;51.634;7.112;2022-09-27T03:59:07;5.40;;;3.40;;
313;SDS011;143;51.634;7.112;2022-09-27T04:01:33;10.17;;;3.77;;
313;SDS011;143;51.634;7.112;2022-09-27T04:04:03;8.80;;;3.93;;
313;SDS011;143;51.634;7.112;2022-09-27T04:06:29;5.27;;;4.00;;
313;SDS011;143;51.634;7.112;2022-09-27T04:08:54;11.23;;;5.67;;
313;SDS011;143;51.634;7.112;2022-09-27T04:11:20;13.93;;;7.17;;
313;SDS011;143;51.634;7.112;2022-09-27T04:13:47;12.37;;;7.40;;
313;SDS011;143;51.634;7.112;2022-09-27T04:16:13;12.90;;;7.60;;
313;SDS011;143;51.634;7.112;2022-09-27T04:18:40;12.27;;;6.00;;
313;SDS011;143;51.634;7.112;2022-09-27T04:21:06;18.97;;;6.47;;
313;SDS011;143;51.634;7.112;2022-09-27T04:23:33;9.20;;;5.50;;
313;SDS011;143;51.634;7.112;2022-09-27T04:25:59;16.10;;;6.00;;
313;SDS011;143;51.634;7.112;2022-09-27T04:28:25;9.70;;;5.23;;
313;SDS011;143;51.634;7.112;2022-09-27T04:30:52;12.50;;;6.13;;
313;SDS011;143;51.634;7.112;2022-09-27T04:33:18;14.83;;;6.17;;
313;SDS011;143;51.634;7.112;2022-09-27T04:35:44;12.73;;;6.90;;
313;SDS011;143;51.634;7.112;2022-09-27T04:38:28;8.57;;;5.70;;
313;SDS011;143;51.634;7.112;2022-09-27T04:40:54;11.73;;;5.07;;
313;SDS011;143;51.634;7.112;2022-09-27T04:43:19;12.83;;;4.80;;
313;SDS011;143;51.634;7.112;2022-09-27T04:45:45;9.00;;;4.70;;
313;SDS011;143;51.634;7.112;2022-09-27T04:48:11;8.40;;;4.00;;
313;SDS011;143;51.634;7.112;2022-09-27T04:50:36;13.93;;;4.20;;
313;SDS011;143;51.634;7.112;2022-09-27T04:53:03;8.17;;;3.83;;
313;SDS011;143;51.634;7.112;2022-09-27T04:55:29;7.67;;;3.70;;
313;SDS011;143;51.634;7.112;2022-09-27T04:57:55;6.10;;;3.63;;
313;SDS011;143;51.634;7.112;2022-09-27T05:00:21;7.90;;;3.87;;
313;SDS011;143;51.634;7.112;2022-09-27T05:02:47;6.40;;;3.13;;
313;SDS011;143;51.634;7.112;2022-09-27T05:05:13;17.97;;;4.03;;
313;SDS011;143;51.634;7.112;2022-09-27T05:07:39;9.00;;;3.97;;
313;SDS011;143;51.634;7.112;2022-09-27T05:10:05;9.93;;;4.37;;
313;SDS011;143;51.634;7.112;2022-09-27T05:12:32;10.87;;;4.30;;
313;SDS011;143;51.634;7.112;2022-09-27T05:14:58;8.33;;;3.67;;
313;SDS011;143;51.634;7.112;2022-09-27T05:17:23;5.03;;;3.50;;
313;SDS011;143;51.634;7.112;2022-09-27T05:19:49;10.60;;;4.60;;
313;SDS011;143;51.634;7.112;2022-09-27T05:22:16;6.43;;;4.10;;
313;SDS011;143;51.634;7.112;2022-09-27T05:24:42;9.97;;;4.10;;
313;SDS011;143;51.634;7.112;2022-09-27T05:27:17;8.80;;;3.40;;
313;SDS011;143;51.634;7.112;2022-09-27T05:29:44;12.43;;;3.67;;
313;SDS011;143;51.634;7.112;2022-09-27T05:32:12;3.47;;;2.33;;
313;SDS011;143;51.634;7.112;2022-09-27T05:34:38;6.20;;;2.97;;
313;SDS011;143;51.634;7.112;2022-09-27T05:37:04;6.03;;;2.97;;
313;SDS011;143;51.634;7.112;2022-09-27T05:39:30;13.13;;;3.17;;
313;SDS011;143;51.634;7.112;2022-09-27T05:41:56;8.10;;;2.63;;
313;SDS011;143;51.634;7.112;2022-09-27T05:44:22;12.73;;;2.60;;
313;SDS011;143;51.634;7.112;2022-09-27T05:46:49;8.20;;;2.50;;
313;SDS011;143;51.634;7.112;2022-09-27T05:49:15;4.27;;;2.23;;
313;SDS011;143;51.634;7.112;2022-09-27T05:51:41;13.27;;;2.97;;
313;SDS011;143;51.634;7.112;2022-09-27T05:54:07;7.73;;;2.90;;
313;SDS011;143;51.634;7.112;2022-09-27T05:56:33;13.03;;;2.97;;
313;SDS011;143;51.634;7.112;2022-09-27T05:58:58;10.00;;;2.70;;
313;SDS011;143;51.634;7.112;2022-09-27T06:01:24;7.33;;;1.97;;
313;SDS011;143;51.634;7.112;2022-09-27T06:03:51;9.23;;;2.30;;
313;SDS011;143;51.634;7.112;2022-09-27T06:06:18;12.70;;;2.60;;
313;SDS011;143;51.634;7.112;2022-09-27T06:08:43;2.57;;;2.00;;
313;SDS011;143;51.634;7.112;2022-09-27T06:11:10;6.17;;;1.97;;
313;SDS011;143;51.634;7.112;2022-09-27T06:13:37;16.50;;;2.40;;
313;SDS011;143;51.634;7.112;2022-09-27T06:16:04;9.97;;;2.60;;
313;SDS011;143;51.634;7.112;2022-09-27T06:18:30;10.13;;;2.27;;
313;SDS011;143;51.634;7.112;2022-09-27T06:21:00;6.93;;;2.20;;
313;SDS011;143;51.634;7.112;2022-09-27T06:23:27;8.63;;;2.03;;
313;SDS011;143;51.634;7.112;2022-09-27T06:25:53;8.83;;;2.20;;
313;SDS011;143;51.634;7.112;2022-09-27T06:28:19;9.37;;;2.43;;
313;SDS011;143;51.634;7.112;2022-09-27T06:30:47;5.50;;;1.90;;
313;SDS011;143;51.634;7.112;2022-09-27T06:33:15;5.20;;;1.90;;
313;SDS011;143;51.634;7.112;2022-09-27T06:35:42;5.67;;;1.83;;
313;SDS011;143;51.634;7.112;2022-09-27T06:38:10;11.30;;;2.17;;
313;SDS011;143;51.634;7.112;2022-09-27T06:40:38;7.17;;;1.97;;
313;SDS011;143;51.634;7.112;2022-09-27T06:43:04;9.20;;;2.70;;
313;SDS011;143;51.634;7.112;2022-09-27T06:45:33;9.50;;;2.13;;
313;SDS011;143;51.634;7.112;2022-09-27T06:48:00;5.47;;;1.70;;
313;SDS011;143;51.634;7.112;2022-09-27T06:50:29;8.30;;;1.90;;
313;SDS011;143;51.634;7.112;2022-09-27T06:53:06;5.70;;;1.73;;
313;SDS011;143;51.634;7.112;2022-09-27T06:55:34;4.20;;;2.13;;
313;SDS011;143;51.634;7.112;2022-09-27T06:58:00;14.50;;;1.87;;
313;SDS011;143;51.634;7.112;2022-09-27T07:00:49;2.77;;;1.47;;
313;SDS011;143;51.634;7.112;2022-09-27T07:03:16;6.40;;;1.40;;
313;SDS011;143;51.634;7.112;2022-09-27T07:05:52;4.20;;;1.50;;
313;SDS011;143;51.634;7.112;2022-09-27T07:08:23;4.23;;;1.40;;
313;SDS011;143;51.634;7.112;2022-09-27T07:10:53;6.27;;;1.27;;
313;SDS011;143;51.634;7.112;2022-09-27T07:13:20;3.90;;;1.40;;
313;SDS011;143;51.634;7.112;2022-09-27T07:15:46;3.47;;;1.47;;
313;SDS011;143;51.634;7.112;2022-09-27T07:18:12;4.70;;;2.23;;
313;SDS011;143;51.634;7.112;2022-09-27T07:20:38;3.00;;;1.50;;
313;SDS011;143;51.634;7.112;2022-09-27T07:23:06;5.47;;;1.80;;
313;SDS011;143;51.634;7.112;2022-09-27T07:25:32;5.60;;;1.70;;
313;SDS011;143;51.634;7.112;2022-09-27T07:27:59;2.23;;;1.47;;
313;SDS011;143;51.634;7.112;2022-09-27T07:30:30;8.40;;;1.70;;
313;SDS011;143;51.634;7.112;2022-09-27T07:32:57;7.70;;;1.53;;
313;SDS011;143;51.634;7.112;2022-09-27T07:35:24;5.90;;;2.20;;
313;SDS011;143;51.634;7.112;2022-09-27T07:37:50;6.87;;;1.57;;
313;SDS011;143;51.634;7.112;2022-09-27T07:40:16;8.43;;;1.90;;
313;SDS011;143;51.634;7.112;2022-09-27T07:42:42;4.60;;;1.40;;
313;SDS011;143;51.634;7.112;2022-09-27T07:45:08;6.50;;;1.57;;
313;SDS011;143;51.634;7.112;2022-09-27T07:47:36;2.93;;;1.33;;
313;SDS011;143;51.634;7.112;2022-09-27T07:50:06;5.20;;;1.30;;
313;SDS011;143;51.634;7.112;2022-09-27T07:52:38;8.20;;;1.60;;
313;SDS011;143;51.634;7.112;2022-09-27T07:55:08;20.53;;;2.90;;
313;SDS011;143;51.634;7.112;2022-09-27T07:57:34;4.13;;;1.30;;
313;SDS011;143;51.634;7.112;2022-09-27T08:00:02;5.17;;;1.70;;
313;SDS011;143;51.634;7.112;2022-09-27T08:02:34;4.00;;;1.33;;
313;SDS011;143;51.634;7.112;2022-09-27T08:04:59;1.93;;;1.30;;
313;SDS011;143;51.634;7.112;2022-09-27T08:07:26;4.00;;;1.00;;
313;SDS011;143;51.634;7.112;2022-09-27T08:09:52;4.20;;;1.73;;
313;SDS011;143;51.634;7.112;2022-09-27T08:12:18;5.53;;;1.53;;
313;SDS011;143;51.634;7.112;2022-09-27T08:14:47;2.40;;;1.60;;
313;SDS011;143;51.634;7.112;2022-09-27T08:17:13;3.80;;;1.40;;
313;SDS011;143;51.634;7.112;2022-09-27T08:19:40;4.93;;;1.40;;
313;SDS011;143;51.634;7.112;2022-09-27T08:22:06;3.37;;;1.23;;
313;SDS011;143;51.634;7.112;2022-09-27T08:24:32;1.33;;;1.17;;
313;SDS011;143;51.634;7.112;2022-09-27T08:26:58;2.70;;;1.27;;
313;SDS011;143;51.634;7.112;2022-09-27T08:29:24;5.43;;;1.10;;
313;SDS011;143;51.634;7.112;2022-09-27T08:31:50;3.10;;;1.10;;
313;SDS011;143;51.634;7.112;2022-09-27T08:34:18;3.17;;;0.90;;
313;SDS011;143;51.634;7.112;2022-09-27T08:36:47;4.73;;;1.07;;
313;SDS011;143;51.634;7.112;2022-09-27T08:39:13;6.57;;;1.13;;
313;SDS011;143;51.634;7.112;2022-09-27T08:52:03;3.43;;;1.13;;
313;SDS011;143;51.634;7.112;2022-09-27T08:54:32;6.00;;;1.00;;
313;SDS011;143;51.634;7.112;2022-09-27T08:57:02;8.87;;;1.47;;
313;SDS011;143;51.634;7.112;2022-09-27T08:59:33;2.80;;;0.97;;
313;SDS011;143;51.634;7.112;2022-09-27T09:02:05;3.07;;;1.40;;
313;SDS011;143;51.634;7.112;2022-09-27T09:05:02;4.20;;;1.03;;
313;SDS011;143;51.634;7.112;2022-09-27T09:07:50;3.67;;;1.00;;
313;SDS011;143;51.634;7.112;2022-09-27T09:16:21;2.60;;;0.97;;
313;SDS011;143;51.634;7.112;2022-09-27T09:21:57;1.80;;;0.93;;
313;SDS011;143;51.634;7.112;2022-09-27T09:30:18;1.87;;;1.10;;
313;SDS011;143;51.634;7.112;2022-09-27T09:38:09;2.67;;;1.20;;
313;SDS011;143;51.634;7.112;2022-09-27T09:40:47;4.47;;;1.30;;
313;SDS011;143;51.634;7.112;2022-09-27T09:43:20;3.93;;;1.37;;
313;SDS011;143;51.634;7.112;2022-09-27T09:46:10;2.13;;;1.40;;
313;SDS011;143;51.634;7.112;2022-09-27T09:48:48;1.30;;;1.10;;
313;SDS011;143;51.634;7.112;2022-09-27T09:51:27;4.23;;;1.20;;
313;SDS011;143;51.634;7.112;2022-09-27T09:54:05;2.40;;;1.30;;
313;SDS011;143;51.634;7.112;2022-09-27T09:56:44;4.13;;;2.13;;
313;SDS011;143;51.634;7.112;2022-09-27T09:59:19;2.67;;;1.30;;
313;SDS011;143;51.634;7.112;2022-09-27T10:01:51;1.53;;;1.10;;
313;SDS011;143;51.634;7.112;2022-09-27T10:04:21;3.20;;;1.07;;
313;SDS011;143;51.634;7.112;2022-09-27T10:06:51;5.53;;;1.30;;
313;SDS011;143;51.634;7.112;2022-09-27T10:09:20;5.27;;;1.83;;
313;SDS011;143;51.634;7.112;2022-09-27T10:11:49;10.17;;;1.60;;
313;SDS011;143;51.634;7.112;2022-09-27T10:14:16;8.53;;;1.97;;
313;SDS011;143;51.634;7.112;2022-09-27T10:16:47;1.30;;;1.23;;
313;SDS011;143;51.634;7.112;2022-09-27T10:19:20;2.03;;;1.33;;
313;SDS011;143;51.634;7.112;2022-09-27T10:21:51;1.80;;;1.43;;
313;SDS011;143;51.634;7.112;2022-09-27T10:24:17;3.47;;;1.47;;
313;SDS011;143;51.634;7.112;2022-09-27T10:26:44;2.70;;;1.93;;
313;SDS011;143;51.634;7.112;2022-09-27T10:29:15;3.17;;;1.83;;
313;SDS011;143;51.634;7.112;2022-09-27T10:31:46;1.87;;;1.30;;
313;SDS011;143;51.634;7.112;2022-09-27T10:34:17;3.47;;;1.50;;
313;SDS011;143;51.634;7.112;2022-09-27T10:36:43;4.00;;;1.40;;
313;SDS011;143;51.634;7.112;2022-09-27T10:39:18;2.60;;;1.80;;
313;SDS011;143;51.634;7.112;2022-09-27T10:41:46;4.80;;;1.93;;
313;SDS011;143;51.634;7.112;2022-09-27T10:46:41;3.60;;;1.67;;
313;SDS011;143;51.634;7.112;2022-09-27T10:49:18;4.50;;;2.23;;
313;SDS011;143;51.634;7.112;2022-09-27T10:51:57;9.33;;;1.73;;
313;SDS011;143;51.634;7.112;2022-09-27T10:54:28;2.30;;;1.90;;
313;SDS011;143;51.634;7.112;2022-09-27T10:56:58;4.33;;;2.10;;
313;SDS011;143;51.634;7.112;2022-09-27T10:59:29;6.83;;;1.60;;
313;SDS011;143;51.634;7.112;2022-09-27T11:01:57;4.07;;;1.80;;
313;SDS011;143;51.634;7.112;2022-09-27T11:04:31;4.43;;;2.03;;
313;SDS011;143;51.634;7.112;2022-09-27T11:07:19;6.30;;;1.93;;
313;SDS011;143;51.634;7.112;2022-09-27T11:09:47;8.17;;;2.83;;
313;SDS011;143;51.634;7.112;2022-09-27T11:12:19;4.53;;;1.60;;
313;SDS011;143;51.634;7.112;2022-09-27T11:14:58;8.30;;;2.00;;
313;SDS011;143;51.634;7.112;2022-09-27T11:17:33;3.70;;;2.20;;
313;SDS011;143;51.634;7.112;2022-09-27T11:20:16;2.67;;;1.97;;
313;SDS011;143;51.634;7.112;2022-09-27T11:44:42;8.33;;;2.60;;
313;SDS011;143;51.634;7.112;2022-09-27T11:47:45;3.97;;;2.50;;
313;SDS011;143;51.634;7.112;2022-09-27T11:56:07;5.80;;;2.23;;
313;SDS011;143;51.634;7.112;2022-09-27T12:07:11;6.37;;;2.33;;
313;SDS011;143;51.634;7.112;2022-09-27T12:09:50;3.70;;;2.53;;
313;SDS011;143;51.634;7.112;2022-09-27T12:12:21;4.00;;;2.77;;
313;SDS011;143;51.634;7.112;2022-09-27T12:17:25;7.00;;;2.70;;
313;SDS011;143;51.634;7.112;2022-09-27T12:19:57;4.43;;;2.33;;
313;SDS011;143;51.634;7.112;2022-09-27T12:22:28;3.73;;;1.60;;
313;SDS011;143;51.634;7.112;2022-09-27T12:24:58;2.40;;;1.60;;
313;SDS011;143;51.634;7.112;2022-09-27T12:27:36;2.60;;;1.47;;
313;SDS011;143;51.634;7.112;2022-09-27T12:30:23;5.47;;;1.70;;
313;SDS011;143;51.634;7.112;2022-09-27T12:33:00;2.57;;;1.40;;
313;SDS011;143;51.634;7.112;2022-09-27T12:35:34;2.00;;;1.53;;
313;SDS011;143;51.634;7.112;2022-09-27T12:38:16;4.23;;;1.40;;
313;SDS011;143;51.634;7.112;2022-09-27T12:40:51;2.90;;;1.40;;
313;SDS011;143;51.634;7.112;2022-09-27T12:43:20;3.40;;;1.27;;
313;SDS011;143;51.634;7.112;2022-09-27T12:48:23;5.60;;;1.60;;
313;SDS011;143;51.634;7.112;2022-09-27T12:51:09;1.73;;;1.60;;
313;SDS011;143;51.634;7.112;2022-09-27T12:56:48;1.80;;;1.50;;
313;SDS011;143;51.634;7.112;2022-09-27T13:13:17;2.40;;;1.37;;
313;SDS011;143;51.634;7.112;2022-09-27T13:15:45;3.00;;;1.70;;
313;SDS011;143;51.634;7.112;2022-09-27T13:20:52;4.13;;;2.03;;
313;SDS011;143;51.634;7.112;2022-09-27T13:25:55;2.40;;;1.30;;
313;SDS011;143;51.634;7.112;2022-09-27T13:30:57;2.03;;;1.60;;
313;SDS011;143;51.634;7.112;2022-09-27T13:38:52;1.83;;;1.50;;
313;SDS011;143;51.634;7.112;2022-09-27T13:44:14;3.10;;;1.70;;
313;SDS011;143;51.634;7.112;2022-09-27T13:46:48;3.80;;;1.63;;
313;SDS011;143;51.634;7.112;2022-09-27T13:49:25;2.60;;;1.37;;
313;SDS011;143;51.634;7.112;2022-09-27T13:51:54;1.90;;;1.47;;
313;SDS011;143;51.634;7.112;2022-09-27T13:57:03;2.70;;;1.30;;
313;SDS011;143;51.634;7.112;2022-09-27T13:59:38;3.00;;;1.33;;
313;SDS011;143;51.634;7.112;2022-09-27T14:02:22;1.73;;;1.20;;
313;SDS011;143;51.634;7.112;2022-09-27T14:04:52;4.80;;;1.30;;
313;SDS011;143;51.634;7.112;2022-09-27T14:07:21;2.57;;;1.87;;
313;SDS011;143;51.634;7.112;2022-09-27T14:09:53;1.57;;;1.17;;
313;SDS011;143;51.634;7.112;2022-09-27T14:12:21;1.20;;;0.77;;
313;SDS011;143;51.634;7.112;2022-09-27T14:14:52;1.83;;;0.80;;
313;SDS011;143;51.634;7.112;2022-09-27T14:17:19;1.33;;;0.97;;
313;SDS011;143;51.634;7.112;2022-09-27T14:19:45;2.53;;;1.20;;
313;SDS011;143;51.634;7.112;2022-09-27T14:22:19;5.87;;;0.90;;
313;SDS011;143;51.634;7.112;2022-09-27T14:24:47;6.43;;;1.30;;
313;SDS011;143;51.634;7.112;2022-09-27T14:27:18;3.07;;;1.30;;
313;SDS011;143;51.634;7.112;2022-09-27T14:32:19;2.57;;;1.20;;
313;SDS011;143;51.634;7.112;2022-09-27T14:35:00;2.40;;;1.03;;
313;SDS011;143;51.634;7.112;2022-09-27T14:37:56;6.53;;;1.83;;
313;SDS011;143;51.634;7.112;2022-09-27T14:40:27;1.27;;;0.90;;
313;SDS011;143;51.634;7.112;2022-09-27T14:42:53;2.43;;;1.10;;
313;SDS011;143;51.634;7.112;2022-09-27T14:45:26;1.63;;;0.80;;
313;SDS011;143;51.634;7.112;2022-09-27T14:53:43;4.40;;;1.00;;
313;SDS011;143;51.634;7.112;2022-09-27T14:56:14;1.03;;;0.80;;
313;SDS011;143;51.634;7.112;2022-09-27T14:58:43;1.40;;;0.60;;
313;SDS011;143;51.634;7.112;2022-09-27T15:01:17;1.10;;;0.80;;
313;SDS011;143;51.634;7.112;2022-09-27T15:03:44;2.03;;;0.60;;
313;SDS011;143;51.634;7.112;2022-09-27T15:06:13;3.20;;;0.97;;
313;SDS011;143;51.634;7.112;2022-09-27T15:08:39;1.53;;;0.70;;
313;SDS011;143;51.634;7.112;2022-09-27T15:11:06;1.83;;;0.70;;
313;SDS011;143;51.634;7.112;2022-09-27T15:13:34;1.30;;;0.80;;
313;SDS011;143;51.634;7.112;2022-09-27T15:16:06;1.00;;;0.60;;
313;SDS011;143;51.634;7.112;2022-09-27T15:18:39;2.80;;;0.90;;
313;SDS011;143;51.634;7.112;2022-09-27T15:21:12;3.90;;;1.00;;
313;SDS011;143;51.634;7.112;2022-09-27T15:23:43;1.20;;;1.00;;
313;SDS011;143;51.634;7.112;2022-09-27T15:26:12;1.90;;;0.70;;
313;SDS011;143;51.634;7.112;2022-09-27T15:28:44;1.30;;;0.90;;
313;SDS011;143;51.634;7.112;2022-09-27T15:31:12;3.20;;;0.70;;
313;SDS011;143;51.634;7.112;2022-09-27T15:33:40;1.53;;;0.70;;
313;SDS011;143;51.634;7.112;2022-09-27T15:36:15;1.40;;;0.70;;
313;SDS011;143;51.634;7.112;2022-09-27T15:41:18;4.33;;;0.80;;
313;SDS011;143;51.634;7.112;2022-09-27T15:43:48;1.97;;;0.77;;
313;SDS011;143;51.634;7.112;2022-09-27T15:51:54;2.27;;;0.90;;
313;SDS011;143;51.634;7.112;2022-09-27T15:54:23;1.80;;;0.60;;
313;SDS011;143;51.634;7.112;2022-09-27T15:56:51;2.40;;;0.60;;
313;SDS011;143;51.634;7.112;2022-09-27T15:59:23;1.83;;;0.90;;
313;SDS011;143;51.634;7.112;2022-09-27T16:01:53;0.90;;;0.60;;
313;SDS011;143;51.634;7.112;2022-09-27T16:04:21;2.50;;;0.93;;
313;SDS011;143;51.634;7.112;2022-09-27T16:06:46;2.50;;;0.80;;
313;SDS011;143;51.634;7.112;2022-09-27T16:09:13;1.20;;;0.77;;
313;SDS011;143;51.634;7.112;2022-09-27T16:11:47;3.50;;;0.90;;
313;SDS011;143;51.634;7.112;2022-09-27T16:14:14;5.73;;;1.00;;
313;SDS011;143;51.634;7.112;2022-09-27T16:16:49;2.83;;;1.00;;
313;SDS011;143;51.634;7.112;2022-09-27T16:19:20;2.73;;;0.80;;
313;SDS011;143;51.634;7.112;2022-09-27T16:21:46;8.97;;;1.33;;
313;SDS011;143;51.634;7.112;2022-09-27T16:24:13;6.30;;;1.03;;
313;SDS011;143;51.634;7.112;2022-09-27T16:26:39;3.40;;;1.10;;
313;SDS011;143;51.634;7.112;2022-09-27T16:29:09;2.20;;;1.10;;
313;SDS011;143;51.634;7.112;2022-09-27T16:31:37;3.23;;;0.93;;
313;SDS011;143;51.634;7.112;2022-09-27T16:34:03;1.87;;;1.10;;
313;SDS011;143;51.634;7.112;2022-09-27T16:36:29;7.07;;;1.00;;
313;SDS011;143;51.634;7.112;2022-09-27T16:38:55;3.43;;;1.13;;
313;SDS011;143;51.634;7.112;2022-09-27T16:41:21;2.80;;;0.90;;
313;SDS011;143;51.634;7.112;2022-09-27T16:43:47;8.57;;;1.67;;
313;SDS011;143;51.634;7.112;2022-09-27T16:46:13;2.00;;;1.20;;
313;SDS011;143;51.634;7.112;2022-09-27T16:48:42;2.83;;;1.60;;
313;SDS011;143;51.634;7.112;2022-09-27T16:51:10;13.60;;;1.60;;
313;SDS011;143;51.634;7.112;2022-09-27T16:53:58;3.13;;;1.47;;
313;SDS011;143;51.634;7.112;2022-09-27T16:56:24;3.33;;;1.40;;
313;SDS011;143;51.634;7.112;2022-09-27T16:58:51;5.30;;;1.70;;
313;SDS011;143;51.634;7.112;2022-09-27T17:01:17;3.30;;;1.50;;
313;SDS011;143;51.634;7.112;2022-09-27T17:03:43;5.77;;;2.30;;
313;SDS011;143;51.634;7.112;2022-09-27T17:06:14;8.30;;;1.60;;
313;SDS011;143;51.634;7.112;2022-09-27T17:08:40;3.00;;;1.90;;
313;SDS011;143;51.634;7.112;2022-09-27T17:11:05;3.63;;;1.40;;
313;SDS011;143;51.634;7.112;2022-09-27T17:13:32;5.13;;;1.63;;
313;SDS011;143;51.634;7.112;2022-09-27T17:15:58;5.40;;;1.50;;
313;SDS011;143;51.634;7.112;2022-09-27T17:18:26;3.73;;;2.23;;
313;SDS011;143;51.634;7.112;2022-09-27T17:20:52;4.67;;;1.90;;
313;SDS011;143;51.634;7.112;2022-09-27T17:23:23;9.30;;;1.90;;
313;SDS011;143;51.634;7.112;2022-09-27T17:25:51;3.20;;;1.40;;
313;SDS011;143;51.634;7.112;2022-09-27T17:28:20;5.53;;;1.70;;
313;SDS011;143;51.634;7.112;2022-09-27T17:30:46;3.20;;;1.60;;
313;SDS011;143;51.634;7.112;2022-09-27T17:33:12;4.13;;;1.67;;
313;SDS011;143;51.634;7.112;2022-09-27T17:35:38;5.80;;;1.90;;
313;SDS011;143;51.634;7.112;2022-09-27T17:38:03;5.40;;;1.90;;
313;SDS011;143;51.634;7.112;2022-09-27T17:40:29;4.87;;;3.03;;
313;SDS011;143;51.634;7.112;2022-09-27T17:42:55;3.07;;;1.87;;
313;SDS011;143;51.634;7.112;2022-09-27T17:45:22;9.87;;;2.67;;
313;SDS011;143;51.634;7.112;2022-09-27T17:47:47;4.20;;;1.87;;
313;SDS011;143;51.634;7.112;2022-09-27T17:50:31;4.43;;;3.47;;
313;SDS011;143;51.634;7.112;2022-09-27T17:52:57;4.57;;;2.60;;
313;SDS011;143;51.634;7.112;2022-09-27T17:55:23;4.17;;;2.53;;
313;SDS011;143;51.634;7.112;2022-09-27T17:57:49;6.03;;;2.37;;
313;SDS011;143;51.634;7.112;2022-09-27T18:00:16;5.70;;;2.30;;
313;SDS011;143;51.634;7.112;2022-09-27T18:02:42;6.50;;;1.83;;
313;SDS011;143;51.634;7.112;2022-09-27T18:05:11;4.00;;;2.30;;
313;SDS011;143;51.634;7.112;2022-09-27T18:07:36;5.83;;;2.00;;
313;SDS011;143;51.634;7.112;2022-09-27T18:10:02;6.73;;;2.33;;
313;SDS011;143;51.634;7.112;2022-09-27T18:12:29;10.30;;;2.93;;
313;SDS011;143;51.634;7.112;2022-09-27T18:14:59;6.10;;;2.03;;
313;SDS011;143;51.634;7.112;2022-09-27T18:17:28;4.57;;;1.80;;
313;SDS011;143;51.634;7.112;2022-09-27T18:19:54;3.70;;;2.10;;
313;SDS011;143;51.634;7.112;2022-09-27T18:22:21;26.27;;;3.00;;
313;SDS011;143;51.634;7.112;2022-09-27T18:24:49;9.70;;;3.80;;
313;SDS011;143;51.634;7.112;2022-09-27T18:27:15;10.03;;;2.60;;
313;SDS011;143;51.634;7.112;2022-09-27T18:29:43;6.13;;;2.20;;
313;SDS011;143;51.634;7.112;2022-09-27T18:32:09;4.93;;;2.23;;
313;SDS011;143;51.634;7.112;2022-09-27T18:34:35;5.70;;;2.40;;
313;SDS011;143;51.634;7.112;2022-09-27T18:37:00;4.80;;;2.40;;
313;SDS011;143;51.634;7.112;2022-09-27T18:39:26;7.17;;;3.00;;
313;SDS011;143;51.634;7.112;2022-09-27T18:41:52;3.93;;;2.30;;
313;SDS011;143;51.634;7.112;2022-09-27T18:44:19;3.93;;;2.40;;
313;SDS011;143;51.634;7.112;2022-09-27T18:46:45;7.63;;;2.30;;
313;SDS011;143;51.634;7.112;2022-09-27T18:49:11;5.50;;;2.23;;
313;SDS011;143;51.634;7.112;2022-09-27T18:51:38;4.10;;;2.70;;
313;SDS011;143;51.634;7.112;2022-09-27T18:54:11;8.97;;;2.67;;
313;SDS011;143;51.634;7.112;2022-09-27T18:56:43;10.60;;;4.20;;